In Rescue
 
Open Full Screen Window  High Contrast Mode
October 19, 2020 7:52 PM EDT
Weather Information
Wind Direction
  ---
Wind Speed
  00 kt (0 mph)
Wind Gust
  00 kt (0 mph)
Altimeter
30.22 in
Visibility
10 SM
Temperature
04° C
39° F
Dewpoint
00° C
32° F
Humidity
75%
1hr Rain Fall
00.00 in.
24hr Rain Fall
00.00 in.
Sky Condition
Overcast @ 4,600 ft
Broken @ 3,300 ft
Scattered @ 2,800 ft
VFR

METAR KMCD 192352Z AUTO 00000KT 10SM SCT028 BKN033 OVC046 04/00 A3022 RMK AO2 T00431005 10072 20042

FAA Disclaimer: The data displayed is for advisory purposes only and is not to be used for flight planning or operations.